Terminal Aerodrome Forecast
Issued by NWS Bismarck, ND

Home | Current Version | Previous Version | Graphics & Text | Print | Product List | Glossary Off
Versions: 1 2 3 4 5 6 7 8 9 10 11 12 13 14 15 16 17 18 19

719
FTUS43 KBIS 101125
TAFBIS
TAF
KBIS 101125Z 1012/1112 12007KT P6SM BKN060
     FM101500 11007KT P6SM BKN035
     FM101900 06006KT P6SM OVC020
     FM110000 04007KT P6SM OVC010
     FM110700 00000KT P6SM OVC020=

USA.gov is the U.S. government's official web portal to all federal, state and local government web resources and services.